ニアメ の空港の天気 - METARとTAF

ニアメ/ディオリ・アマニ国際空港 ( DRRN / NIM ) - ニジェール ニアメ
飛行場実況気象(Metar)
観測時間01/19 12:00 WAT (01/19 11:00 UTC)
風向・風速北 7m/s
視程6000m
天気現象
なし
気温30℃
湿度7%
気圧1014hPa
METARDRRN 191100Z 36013KT 6000 NSC 30/M09 Q1014 TEMPO 4000 BLDU
過去の天気等 Google飛行場航空写真 Wunderground天気予報

過去48時間のMETAR

飛行場予報(TAF)
発表時間: 1/19 06:00 WAT (1/19 05:00 UTC)
予報対象時間: 19日7時 WAT ~ 20日13時 WAT
風向・風速東南東 4m/s
視程4000m
天気現象風塵
なし
19日15時 WAT ~ 19日17時 WAT に徐々に
視程6000m
天気現象運行に影響にある天気現象が終了
19日18時 WAT ~ 19日21時 WAT に一時的に
視程4000m
天気現象風塵
TAF DRRN 190500Z 1906/2012 12008KT 4000 DU NSC
BECMG 1914/1916 6000 NSW
TEMPO 1917/1920 4000 DU